createdAt,value
2018-12-19T00:00:00.559Z,0
2018-12-19T00:01:10.629Z,0
2018-12-19T00:02:20.729Z,0
2018-12-19T00:03:30.819Z,0
2018-12-19T00:04:40.933Z,0
2018-12-19T00:05:50.981Z,0
2018-12-19T00:07:01.232Z,0
2018-12-19T00:08:11.296Z,0
2018-12-19T00:09:21.349Z,0
2018-12-19T00:10:31.191Z,0
2018-12-19T00:11:41.233Z,0
2018-12-19T00:12:51.284Z,0
2018-12-19T00:14:01.068Z,0
2018-12-19T00:15:11.162Z,0
2018-12-19T00:16:21.233Z,0
2018-12-19T00:17:31.026Z,0
2018-12-19T00:18:41.086Z,0
2018-12-19T00:19:51.143Z,0
2018-12-19T00:21:01.215Z,0
2018-12-19T00:22:11.003Z,0
2018-12-19T00:23:21.063Z,0
2018-12-19T00:24:31.124Z,0
2018-12-19T00:25:40.723Z,0
2018-12-19T00:26:50.799Z,0
2018-12-19T00:28:00.607Z,0
2018-12-19T00:29:11.081Z,0
2018-12-19T00:30:20.890Z,0
2018-12-19T00:31:31.001Z,0
2018-12-19T00:32:40.784Z,0
2018-12-19T00:33:50.564Z,0
2018-12-19T00:35:00.611Z,0
2018-12-19T00:36:10.668Z,0
2018-12-19T00:37:20.698Z,0
2018-12-19T00:38:30.238Z,0
2018-12-19T00:39:40.282Z,0
2018-12-19T00:40:49.835Z,0
2018-12-19T00:41:59.875Z,0
2018-12-19T00:43:10.085Z,0
2018-12-19T00:44:19.884Z,0
2018-12-19T00:45:29.950Z,0
2018-12-19T00:46:39.996Z,0
2018-12-19T00:47:49.785Z,0
2018-12-19T00:48:59.567Z,0
2018-12-19T00:50:10.782Z,0
2018-12-19T00:51:20.846Z,0
2018-12-19T00:52:30.888Z,0
2018-12-19T00:53:40.695Z,0
2018-12-19T00:54:50.215Z,0
2018-12-19T00:56:00.318Z,0
2018-12-19T00:57:10.116Z,0
2018-12-19T00:58:20.170Z,0
2018-12-19T00:59:30.229Z,0
2018-12-19T01:00:40.519Z,0
2018-12-19T01:01:50.563Z,0
2018-12-19T01:03:00.617Z,0
2018-12-19T01:04:10.420Z,0
2018-12-19T01:05:20.490Z,0
2018-12-19T01:06:30.067Z,0
2018-12-19T01:07:40.104Z,0
2018-12-19T01:08:50.160Z,0
2018-12-19T01:09:59.443Z,0
2018-12-19T01:11:09.589Z,0
2018-12-19T01:12:19.686Z,0
2018-12-19T01:13:29.742Z,0
2018-12-19T01:14:39.775Z,0
2018-12-19T01:15:49.560Z,0
2018-12-19T01:16:59.598Z,0
2018-12-19T01:18:09.653Z,0
2018-12-19T01:19:19.696Z,0
2018-12-19T01:20:29.764Z,0
2018-12-19T01:21:39.827Z,0
2018-12-19T01:22:49.633Z,0
2018-12-19T01:23:59.753Z,0
2018-12-19T01:25:10.974Z,0
2018-12-19T01:26:20.773Z,0
2018-12-19T01:27:30.829Z,0
2018-12-19T01:28:40.628Z,0
2018-12-19T01:29:50.667Z,0
2018-12-19T01:31:00.519Z,0
2018-12-19T01:32:10.560Z,0
2018-12-19T01:33:20.613Z,0
2018-12-19T01:34:30.415Z,0
2018-12-19T01:35:40.459Z,0
2018-12-19T01:36:50.505Z,0
2018-12-19T01:38:00.339Z,0
2018-12-19T01:39:10.384Z,0
2018-12-19T01:40:19.921Z,0
2018-12-19T01:41:29.956Z,0
2018-12-19T01:42:39.736Z,0
2018-12-19T01:43:49.782Z,0
2018-12-19T01:44:59.569Z,0
2018-12-19T01:46:09.681Z,0
2018-12-19T01:47:19.770Z,0
2018-12-19T01:48:29.827Z,0
2018-12-19T01:49:39.624Z,0
2018-12-19T01:50:49.658Z,0
2018-12-19T01:51:59.461Z,0
2018-12-19T01:53:09.506Z,0
2018-12-19T01:54:19.287Z,0
2018-12-19T01:55:29.088Z,0
2018-12-19T01:56:39.131Z,0
2018-12-19T01:57:48.930Z,0
2018-12-19T01:58:59.022Z,0
2018-12-19T02:00:09.067Z,0
2018-12-19T02:01:18.862Z,0
2018-12-19T02:02:28.923Z,0
2018-12-19T02:03:38.712Z,0
2018-12-19T02:04:48.752Z,0
2018-12-19T02:05:58.809Z,0
2018-12-19T02:07:08.612Z,0
2018-12-19T02:08:18.660Z,0
2018-12-19T02:09:33.773Z,0
2018-12-19T02:10:43.808Z,0
2018-12-19T02:11:53.865Z,0
2018-12-19T02:13:03.911Z,0
2018-12-19T02:14:13.727Z,0
2018-12-19T02:15:23.797Z,0
2018-12-19T02:16:33.609Z,0
2018-12-19T02:17:43.645Z,0
2018-12-19T02:18:53.690Z,0
2018-12-19T02:20:03.771Z,0
2018-12-19T02:21:13.802Z,0
2018-12-19T02:22:23.879Z,0
2018-12-19T02:23:33.925Z,0
2018-12-19T02:24:43.977Z,0
2018-12-19T02:25:54.008Z,0
2018-12-19T02:27:04.042Z,0
2018-12-19T02:28:14.090Z,0
2018-12-19T02:29:23.909Z,0
2018-12-19T02:30:33.962Z,0
2018-12-19T02:31:43.776Z,0
2018-12-19T02:32:53.329Z,0
2018-12-19T02:34:03.375Z,0
2018-12-19T02:35:13.421Z,0
2018-12-19T02:36:23.488Z,0
2018-12-19T02:37:33.292Z,0
2018-12-19T02:38:43.094Z,0
2018-12-19T02:39:53.183Z,0
2018-12-19T02:41:03.433Z,0
2018-12-19T02:42:13.474Z,0
2018-12-19T02:43:23.002Z,0
2018-12-19T02:44:32.798Z,0
2018-12-19T02:45:42.593Z,0
2018-12-19T02:46:52.679Z,0
2018-12-19T02:48:02.734Z,0
2018-12-19T02:49:12.792Z,0
2018-12-19T02:50:22.330Z,0
2018-12-19T02:51:32.532Z,0
2018-12-19T02:52:42.588Z,0
2018-12-19T02:53:52.396Z,0
2018-12-19T02:55:02.191Z,0
2018-12-19T02:56:12.262Z,0
2018-12-19T02:57:22.368Z,0
2018-12-19T02:58:32.415Z,0
2018-12-19T02:59:42.193Z,0
2018-12-19T03:00:52.243Z,0
2018-12-19T03:02:02.042Z,0
2018-12-19T03:03:12.153Z,0
2018-12-19T03:34:56.732Z,0
2018-12-19T03:36:07.317Z,0
2018-12-19T03:37:17.364Z,0
2018-12-19T03:38:27.142Z,0
2018-12-19T03:39:37.197Z,0
2018-12-19T03:40:47.295Z,0
2018-12-19T03:41:57.348Z,0
2018-12-19T03:43:07.543Z,0
2018-12-19T03:44:17.602Z,0
2018-12-19T03:45:27.662Z,0
2018-12-19T03:46:37.764Z,0
2018-12-19T03:47:47.879Z,0
2018-12-19T03:48:57.947Z,0
2018-12-19T03:50:08.572Z,0
2018-12-19T03:51:18.652Z,0
2018-12-19T03:52:28.471Z,0
2018-12-19T03:53:38.589Z,0
2018-12-19T03:54:48.640Z,0
2018-12-19T03:55:58.703Z,0
2018-12-19T03:57:08.499Z,0
2018-12-19T03:58:18.588Z,0
2018-12-19T03:59:28.643Z,0
2018-12-19T04:00:38.693Z,0
2018-12-19T04:01:48.490Z,0
2018-12-19T04:02:58.551Z,0
2018-12-19T04:04:08.676Z,0
2018-12-19T04:05:18.716Z,0
2018-12-19T04:06:28.800Z,0
2018-12-19T04:07:38.597Z,0
2018-12-19T04:08:48.676Z,0
2018-12-19T04:10:05.440Z,0
2018-12-19T04:11:15.504Z,0
2018-12-19T04:12:25.570Z,0
2018-12-19T04:13:35.615Z,0
2018-12-19T04:14:45.674Z,0
2018-12-19T04:15:55.877Z,0
2018-12-19T04:17:06.465Z,0
2018-12-19T04:18:16.512Z,0
2018-12-19T04:19:26.592Z,0
2018-12-19T04:20:36.642Z,0
2018-12-19T04:21:46.684Z,0
2018-12-19T04:22:56.741Z,0
2018-12-19T04:24:06.824Z,0
2018-12-19T04:25:16.615Z,0
2018-12-19T04:26:26.667Z,0
2018-12-19T04:27:36.724Z,0
2018-12-19T04:28:46.628Z,0
2018-12-19T04:29:56.682Z,0
2018-12-19T04:31:06.749Z,0
2018-12-19T04:32:16.921Z,0
2018-12-19T04:33:26.994Z,0
2018-12-19T04:34:37.033Z,0
2018-12-19T04:35:47.083Z,0
2018-12-19T04:36:57.140Z,0
2018-12-19T04:38:07.032Z,0
2018-12-19T04:39:17.077Z,0
2018-12-19T04:40:27.130Z,0
2018-12-19T04:41:37.201Z,0
2018-12-19T04:42:47.245Z,0
2018-12-19T04:43:57.033Z,0
2018-12-19T04:45:07.079Z,0
2018-12-19T04:46:16.879Z,0
2018-12-19T04:47:26.678Z,0
2018-12-19T04:48:36.495Z,0
2018-12-19T04:49:46.306Z,0
2018-12-19T04:50:56.356Z,0
2018-12-19T04:52:06.424Z,0
2018-12-19T04:53:17.125Z,0
2018-12-19T04:54:27.191Z,0
2018-12-19T04:55:36.987Z,0
2018-12-19T04:56:47.046Z,0
2018-12-19T04:57:57.093Z,0
2018-12-19T04:59:07.145Z,0
2018-12-19T05:00:17.208Z,0
2018-12-19T05:01:27.247Z,0
2018-12-19T05:02:37.375Z,0
2018-12-19T05:03:47.426Z,0
2018-12-19T05:04:57.238Z,0
2018-12-19T05:06:08.692Z,0
2018-12-19T05:07:18.737Z,0
2018-12-19T05:08:28.794Z,0
2018-12-19T05:09:38.827Z,0
2018-12-19T05:10:48.865Z,0
2018-12-19T05:11:58.924Z,0
2018-12-19T05:13:09.102Z,0
2018-12-19T05:14:19.164Z,0
2018-12-19T05:15:29.231Z,0
2018-12-19T05:16:39.021Z,0
2018-12-19T05:17:49.103Z,0
2018-12-19T05:18:59.201Z,0
2018-12-19T05:20:09.281Z,0
2018-12-19T05:21:19.304Z,0
2018-12-19T05:22:29.104Z,0
2018-12-19T05:23:39.149Z,0
2018-12-19T05:24:49.203Z,0
2018-12-19T05:25:58.990Z,0
2018-12-19T05:27:09.064Z,0
2018-12-19T05:28:19.118Z,0
2018-12-19T05:29:28.930Z,0
2018-12-19T05:30:38.969Z,0
2018-12-19T05:31:49.036Z,0
2018-12-19T05:32:59.079Z,0
2018-12-19T05:34:09.107Z,0
2018-12-19T05:35:19.150Z,0
2018-12-19T05:36:29.194Z,0
2018-12-19T05:37:39.353Z,0
2018-12-19T05:38:49.411Z,0
2018-12-19T05:39:59.466Z,0
2018-12-19T05:41:09.505Z,0
2018-12-19T05:42:19.570Z,0
2018-12-19T05:43:29.616Z,0
2018-12-19T05:44:39.676Z,0
2018-12-19T05:45:49.465Z,0
2018-12-19T05:46:58.743Z,0
2018-12-19T05:48:08.775Z,0
2018-12-19T05:49:18.813Z,0
2018-12-19T05:50:28.858Z,0
2018-12-19T05:51:38.391Z,0
2018-12-19T05:52:48.179Z,0
2018-12-19T05:53:58.229Z,0
2018-12-19T05:55:08.291Z,0
2018-12-19T05:56:18.085Z,0
2018-12-19T05:57:27.861Z,0
2018-12-19T05:58:37.416Z,0
2018-12-19T05:59:47.452Z,0
2018-12-19T06:00:57.261Z,0
2018-12-19T06:02:07.304Z,0
2018-12-19T06:03:17.356Z,0
2018-12-19T06:04:27.408Z,0
2018-12-19T06:05:37.214Z,0
2018-12-19T06:06:47.302Z,0
2018-12-19T06:07:57.090Z,0
2018-12-19T06:09:07.143Z,0
2018-12-19T06:10:17.197Z,0
2018-12-19T06:11:27.240Z,0
2018-12-19T06:12:37.334Z,0
2018-12-19T06:13:47.371Z,0
2018-12-19T06:14:57.172Z,0
2018-12-19T06:16:07.213Z,0
2018-12-19T06:17:17.276Z,0
2018-12-19T06:18:27.185Z,0
2018-12-19T06:19:37.243Z,0
2018-12-19T06:20:47.292Z,0
2018-12-19T06:21:57.081Z,0
2018-12-19T06:23:07.127Z,0
2018-12-19T06:24:17.189Z,0
2018-12-19T06:25:27.253Z,0
2018-12-19T06:26:37.309Z,0
2018-12-19T06:27:47.092Z,0
2018-12-19T06:28:57.161Z,0
2018-12-19T06:30:07.229Z,0
2018-12-19T06:31:17.032Z,0
2018-12-19T06:32:27.083Z,0
2018-12-19T06:33:36.879Z,0
2018-12-19T06:34:46.913Z,5
2018-12-19T06:35:56.973Z,5
2018-12-19T06:37:06.510Z,5
2018-12-19T06:38:16.596Z,5
2018-12-19T06:39:26.787Z,5
2018-12-19T06:40:42.602Z,5
2018-12-19T06:41:52.457Z,5
2018-12-19T06:43:02.524Z,5
2018-12-19T06:44:12.627Z,5
2018-12-19T06:45:22.706Z,5
2018-12-19T06:46:32.758Z,5
2018-12-19T06:47:42.810Z,5
2018-12-19T06:48:52.621Z,10
2018-12-19T06:50:02.765Z,10
2018-12-19T06:51:12.801Z,10
2018-12-19T06:52:22.852Z,10
2018-12-19T06:53:32.935Z,10
2018-12-19T06:54:42.979Z,15
2018-12-19T06:55:52.796Z,15
2018-12-19T06:57:02.840Z,15
2018-12-19T06:58:12.649Z,20
2018-12-19T06:59:22.253Z,20
2018-12-19T07:00:32.049Z,20
2018-12-19T07:01:41.911Z,20
2018-12-19T07:02:51.976Z,20
2018-12-19T07:04:02.022Z,20
2018-12-19T07:05:12.083Z,25
2018-12-19T07:06:22.130Z,25
2018-12-19T07:07:31.922Z,25
2018-12-19T07:08:41.968Z,30
2018-12-19T07:09:51.777Z,30
2018-12-19T07:11:01.845Z,30
2018-12-19T07:12:11.972Z,30
2018-12-19T07:13:22.099Z,30
2018-12-19T07:14:32.139Z,35
2018-12-19T07:15:42.207Z,35
2018-12-19T07:16:53.239Z,35
2018-12-19T07:18:02.800Z,35
2018-12-19T07:19:12.863Z,35
2018-12-19T07:20:22.912Z,35
2018-12-19T07:21:33.291Z,35
2018-12-19T07:22:43.407Z,35
2018-12-19T07:23:53.208Z,40
2018-12-19T07:25:03.726Z,40
2018-12-19T07:26:13.529Z,40
2018-12-19T07:27:23.582Z,45
2018-12-19T07:28:33.632Z,45
2018-12-19T07:29:43.427Z,50
2018-12-19T07:30:53.481Z,50
2018-12-19T07:32:03.522Z,50
2018-12-19T07:33:13.548Z,50
2018-12-19T07:34:23.673Z,50
2018-12-19T07:35:33.727Z,50
2018-12-19T07:36:43.779Z,50
2018-12-19T07:37:53.830Z,50
2018-12-19T07:39:03.899Z,55
2018-12-19T07:40:13.998Z,55
2018-12-19T07:41:24.041Z,55
2018-12-19T07:42:34.087Z,55
2018-12-19T07:43:43.886Z,55
2018-12-19T07:44:53.945Z,55
2018-12-19T07:46:03.768Z,55
2018-12-19T07:47:13.817Z,55
2018-12-19T07:48:23.901Z,55
2018-12-19T07:49:33.944Z,55
2018-12-19T07:50:43.754Z,55
2018-12-19T07:51:53.287Z,55
2018-12-19T07:53:03.352Z,55
2018-12-19T07:54:13.424Z,55
2018-12-19T07:55:23.488Z,55
2018-12-19T07:56:33.553Z,55
2018-12-19T07:57:43.472Z,60
2018-12-19T07:58:53.537Z,60
2018-12-19T08:00:03.598Z,65
2018-12-19T08:01:13.674Z,65
2018-12-19T08:02:23.737Z,65
2018-12-19T08:03:33.782Z,65
2018-12-19T08:04:43.868Z,70
2018-12-19T08:05:53.681Z,70
2018-12-19T08:07:03.761Z,70
2018-12-19T08:08:13.810Z,75
2018-12-19T08:09:23.866Z,75
2018-12-19T08:10:33.925Z,80
2018-12-19T08:11:43.986Z,80
2018-12-19T08:12:53.793Z,80
2018-12-19T08:14:03.832Z,80
2018-12-19T08:15:13.890Z,80
2018-12-19T08:16:23.701Z,80
2018-12-19T08:17:33.767Z,80
2018-12-19T08:18:43.571Z,80
2018-12-19T08:19:53.632Z,85
2018-12-19T08:21:03.803Z,85
2018-12-19T08:22:13.605Z,85
2018-12-19T08:23:23.663Z,90
2018-12-19T08:24:33.478Z,90
2018-12-19T08:25:43.276Z,90
2018-12-19T08:26:53.332Z,85
2018-12-19T08:28:03.382Z,85
2018-12-19T08:29:13.446Z,85
2018-12-19T08:30:23.499Z,85
2018-12-19T08:31:33.554Z,85
2018-12-19T08:32:43.670Z,90
2018-12-19T08:33:53.719Z,85
2018-12-19T08:35:03.775Z,85
2018-12-19T08:36:13.847Z,90
2018-12-19T08:37:23.902Z,95
2018-12-19T08:38:34.043Z,100
2018-12-19T08:39:44.107Z,100
2018-12-19T08:40:58.688Z,100
2018-12-19T08:42:08.758Z,100
2018-12-19T08:43:18.882Z,105
2018-12-19T08:44:29.336Z,105
2018-12-19T08:45:39.176Z,110
2018-12-19T08:46:49.229Z,115
2018-12-19T08:47:59.456Z,115
2018-12-19T08:49:09.527Z,115
2018-12-19T08:50:19.593Z,115
2018-12-19T08:51:29.636Z,115
2018-12-19T08:52:39.443Z,115
2018-12-19T08:53:49.498Z,115
2018-12-19T08:54:59.545Z,110
2018-12-19T08:56:09.650Z,110
2018-12-19T08:57:19.723Z,110
2018-12-19T08:58:29.765Z,110
2018-12-19T08:59:39.874Z,110
2018-12-19T09:00:49.928Z,110
2018-12-19T09:01:59.729Z,110
2018-12-19T09:03:12.446Z,110
2018-12-19T09:04:28.299Z,110
2018-12-19T09:05:38.361Z,115
2018-12-19T09:06:48.415Z,115
2018-12-19T09:07:58.548Z,120
2018-12-19T09:09:08.367Z,115
2018-12-19T09:10:18.175Z,120
2018-12-19T09:11:28.250Z,120
2018-12-19T09:12:38.358Z,120
2018-12-19T09:13:48.454Z,125
2018-12-19T09:14:58.523Z,125
2018-12-19T09:16:08.580Z,125
2018-12-19T09:17:18.649Z,125
2018-12-19T09:18:28.715Z,125
2018-12-19T09:19:38.756Z,125
2018-12-19T09:20:48.823Z,125
2018-12-19T09:21:58.889Z,130
2018-12-19T09:23:08.712Z,130
2018-12-19T09:24:18.853Z,125
2018-12-19T09:25:28.940Z,125
2018-12-19T09:26:39.035Z,120
2018-12-19T09:27:49.084Z,125
2018-12-19T09:28:59.150Z,135
2018-12-19T09:30:09.264Z,130
2018-12-19T09:31:19.322Z,125
2018-12-19T09:32:29.386Z,125
2018-12-19T09:33:39.450Z,125
2018-12-19T09:34:49.494Z,125
2018-12-19T09:35:59.598Z,125
2018-12-19T09:37:09.409Z,125
2018-12-19T09:38:19.219Z,135
2018-12-19T09:39:29.341Z,130
2018-12-19T09:40:39.432Z,125
2018-12-19T09:41:49.492Z,130
2018-12-19T09:42:59.595Z,125
2018-12-19T09:44:11.086Z,125
2018-12-19T09:45:21.192Z,125
2018-12-19T09:46:31.238Z,125
2018-12-19T09:47:41.271Z,120
2018-12-19T09:48:51.339Z,120
2018-12-19T09:50:01.383Z,120
2018-12-19T09:51:11.456Z,120
2018-12-19T09:52:21.538Z,120
2018-12-19T09:53:31.578Z,120
2018-12-19T09:54:41.735Z,120
2018-12-19T09:55:51.828Z,125
2018-12-19T09:57:03.140Z,125
2018-12-19T09:58:12.954Z,130
2018-12-19T09:59:22.745Z,130
2018-12-19T10:00:32.802Z,135
2018-12-19T10:01:42.859Z,135
2018-12-19T10:02:54.220Z,135
2018-12-19T10:04:06.149Z,125
2018-12-19T10:05:16.098Z,130
2018-12-19T10:06:26.649Z,135
2018-12-19T10:07:36.816Z,140
2018-12-19T10:08:46.895Z,125
2018-12-19T10:09:56.964Z,125
2018-12-19T10:11:07.265Z,135
2018-12-19T10:12:17.361Z,135
2018-12-19T10:13:30.430Z,135
2018-12-19T10:14:42.167Z,135
2018-12-19T10:16:04.206Z,145
2018-12-19T10:17:40.860Z,145
2018-12-19T10:19:13.470Z,135
2018-12-19T10:20:28.066Z,130
2018-12-19T10:21:41.318Z,130
2018-12-19T10:22:54.159Z,125
2018-12-19T10:24:06.540Z,125
2018-12-19T10:25:20.989Z,125
2018-12-19T10:26:33.811Z,125
2018-12-19T10:27:47.551Z,125
2018-12-19T10:29:02.528Z,130
2018-12-19T10:30:15.865Z,125
2018-12-19T10:31:28.093Z,130
2018-12-19T10:32:50.502Z,130
2018-12-19T10:34:12.186Z,130
2018-12-19T10:35:32.646Z,135
2018-12-19T10:36:49.971Z,140
2018-12-19T10:38:04.602Z,120
2018-12-19T10:39:18.347Z,120
2018-12-19T10:40:30.368Z,120
2018-12-19T10:41:42.252Z,120
2018-12-19T10:42:54.858Z,120
2018-12-19T10:44:07.914Z,120
2018-12-19T10:45:20.082Z,120
2018-12-19T10:46:31.645Z,120
2018-12-19T10:47:42.517Z,120
2018-12-19T10:48:54.687Z,120
2018-12-19T10:50:06.209Z,120
2018-12-19T10:56:03.139Z,115
2018-12-19T10:57:13.230Z,115
2018-12-19T10:58:23.325Z,115
2018-12-19T10:59:33.411Z,115
2018-12-19T11:00:43.566Z,115
2018-12-19T11:01:53.633Z,115
2018-12-19T11:03:03.752Z,120
2018-12-19T11:04:13.575Z,115
2018-12-19T11:05:23.967Z,115
2018-12-19T11:06:34.049Z,115
2018-12-19T11:07:43.861Z,115
2018-12-19T11:08:53.651Z,115
2018-12-19T11:10:03.743Z,110
2018-12-19T11:11:13.820Z,115
2018-12-19T11:12:23.899Z,115
2018-12-19T11:13:33.989Z,115
2018-12-19T11:14:44.065Z,115
2018-12-19T11:15:54.161Z,120
2018-12-19T11:17:04.229Z,120
2018-12-19T11:18:14.358Z,130
2018-12-19T11:19:24.219Z,130
2018-12-19T11:20:34.081Z,140
2018-12-19T11:21:44.205Z,135
2018-12-19T11:22:54.494Z,140
2018-12-19T11:24:04.574Z,140
2018-12-19T11:25:14.637Z,140
2018-12-19T11:26:24.708Z,140
2018-12-19T11:27:34.767Z,135
2018-12-19T11:28:44.588Z,135
2018-12-19T11:29:54.730Z,130
2018-12-19T11:31:04.874Z,125
2018-12-19T11:32:15.259Z,145
2018-12-19T11:33:25.345Z,130
2018-12-19T11:34:35.411Z,130
2018-12-19T11:35:45.474Z,125
2018-12-19T11:36:55.550Z,120
2018-12-19T11:38:08.302Z,115
2018-12-19T11:39:18.378Z,120
2018-12-19T11:40:28.207Z,115
2018-12-19T11:41:43.954Z,110
2018-12-19T11:42:54.064Z,110
2018-12-19T11:44:04.120Z,115
2018-12-19T11:45:13.939Z,115
2018-12-19T11:46:24.014Z,115
2018-12-19T11:47:34.380Z,115
2018-12-19T11:48:44.448Z,110
2018-12-19T11:49:54.271Z,110
2018-12-19T11:51:05.033Z,110
2018-12-19T11:52:15.169Z,110
2018-12-19T11:53:25.260Z,110
2018-12-19T11:54:38.931Z,115
2018-12-19T11:55:49.005Z,110
2018-12-19T11:56:59.103Z,115
2018-12-19T11:58:10.580Z,120
2018-12-19T11:59:20.428Z,115
2018-12-19T12:00:30.496Z,120
2018-12-19T12:01:56.057Z,115
2018-12-19T12:04:05.574Z,110
2018-12-19T12:05:15.792Z,115
2018-12-19T12:06:25.641Z,115
2018-12-19T12:07:35.450Z,110
2018-12-19T12:08:45.301Z,110
2018-12-19T12:09:55.446Z,110
2018-12-19T12:11:07.773Z,110
2018-12-19T12:12:17.841Z,115
2018-12-19T12:13:27.951Z,115
2018-12-19T12:14:37.783Z,110
2018-12-19T12:15:47.864Z,105
2018-12-19T12:16:57.926Z,110
2018-12-19T12:18:10.409Z,105
2018-12-19T12:19:19.984Z,105
2018-12-19T12:20:30.051Z,105
2018-12-19T12:21:40.160Z,110
2018-12-19T12:22:50.940Z,110
2018-12-19T12:24:02.392Z,110
2018-12-19T12:25:12.382Z,120
2018-12-19T12:26:22.736Z,115
2018-12-19T12:27:32.876Z,125
2018-12-19T12:28:42.809Z,120
2018-12-19T12:29:52.643Z,115
2018-12-19T12:31:02.789Z,125
2018-12-19T12:32:12.852Z,115
2018-12-19T12:33:22.938Z,115
2018-12-19T12:34:33.010Z,115
2018-12-19T12:35:43.111Z,120
2018-12-19T12:36:53.231Z,105
2018-12-19T12:38:05.782Z,105
2018-12-19T12:39:15.595Z,105
2018-12-19T12:40:25.397Z,100
2018-12-19T12:41:36.236Z,95
2018-12-19T12:42:46.311Z,95
2018-12-19T12:43:56.368Z,95
2018-12-19T12:45:06.245Z,95
2018-12-19T12:46:16.318Z,90
2018-12-19T12:47:26.419Z,90
2018-12-19T12:48:36.549Z,90
2018-12-19T12:49:46.624Z,85
2018-12-19T12:50:56.493Z,90
2018-12-19T12:52:06.763Z,90
2018-12-19T12:53:16.585Z,100
2018-12-19T12:54:26.780Z,95
2018-12-19T12:55:36.920Z,90
2018-12-19T12:56:47.221Z,85
2018-12-19T12:57:57.055Z,80
2018-12-19T12:59:07.131Z,80
2018-12-19T13:00:17.731Z,80
2018-12-19T13:01:27.562Z,75
2018-12-19T13:02:37.650Z,75
2018-12-19T13:03:47.757Z,80
2018-12-19T13:04:57.577Z,75
2018-12-19T13:06:07.651Z,75
2018-12-19T13:07:17.752Z,70
2018-12-19T13:08:27.869Z,70
2018-12-19T13:09:37.686Z,70
2018-12-19T13:10:47.748Z,70
2018-12-19T13:12:03.549Z,70
2018-12-19T13:13:13.553Z,70
2018-12-19T13:14:23.625Z,65
2018-12-19T13:15:33.762Z,65
2018-12-19T13:16:43.864Z,65
2018-12-19T13:17:53.931Z,65
2018-12-19T13:19:04.753Z,65
2018-12-19T13:20:14.835Z,65
2018-12-19T13:21:24.672Z,65
2018-12-19T13:22:34.762Z,65
2018-12-19T13:23:44.841Z,60
2018-12-19T13:24:54.879Z,60
2018-12-19T13:26:05.080Z,60
2018-12-19T13:27:14.890Z,60
2018-12-19T13:28:24.998Z,55
2018-12-19T13:29:35.074Z,55
2018-12-19T13:30:45.201Z,55
2018-12-19T13:31:55.256Z,55
2018-12-19T13:33:05.319Z,55
2018-12-19T13:34:14.940Z,50
2018-12-19T13:35:25.011Z,50
2018-12-19T13:36:35.099Z,50
2018-12-19T13:37:45.201Z,50
2018-12-19T13:38:55.303Z,50
2018-12-19T13:40:07.231Z,50
2018-12-19T13:41:17.285Z,50
2018-12-19T13:42:27.351Z,50
2018-12-19T13:43:37.412Z,50
2018-12-19T13:44:47.484Z,50
2018-12-19T13:45:57.554Z,50
2018-12-19T13:47:09.554Z,50
2018-12-19T13:48:19.358Z,50
2018-12-19T13:49:29.413Z,50
2018-12-19T13:50:39.227Z,45
2018-12-19T13:51:49.309Z,45
2018-12-19T13:52:59.378Z,45
2018-12-19T13:54:09.446Z,45
2018-12-19T13:55:19.290Z,45
2018-12-19T13:56:29.341Z,45
2018-12-19T13:57:39.390Z,45
2018-12-19T13:58:49.437Z,45
2018-12-19T13:59:59.248Z,45
2018-12-19T14:01:09.304Z,45
2018-12-19T14:02:19.110Z,45
2018-12-19T14:03:29.149Z,40
2018-12-19T14:04:39.227Z,45
2018-12-19T14:05:49.315Z,40
2018-12-19T14:06:59.391Z,40
2018-12-19T14:08:09.454Z,40
2018-12-19T14:09:19.512Z,40
2018-12-19T14:10:29.053Z,35
2018-12-19T14:11:38.858Z,35
2018-12-19T14:12:48.909Z,35
2018-12-19T14:13:58.709Z,35
2018-12-19T14:15:08.775Z,30
2018-12-19T14:16:18.562Z,30
2018-12-19T14:17:28.649Z,30
2018-12-19T14:18:38.722Z,25
2018-12-19T14:19:48.795Z,25
2018-12-19T14:20:58.902Z,25
2018-12-19T14:22:08.986Z,25
2018-12-19T14:23:19.133Z,20
2018-12-19T14:24:29.222Z,20
2018-12-19T14:25:39.292Z,20
2018-12-19T14:26:49.377Z,20
2018-12-19T14:27:59.712Z,20
2018-12-19T14:29:10.066Z,15
2018-12-19T14:30:19.888Z,15
2018-12-19T14:31:29.950Z,15
2018-12-19T14:32:40.028Z,15
2018-12-19T14:33:50.102Z,15
2018-12-19T14:35:00.164Z,15
2018-12-19T14:36:10.218Z,10
2018-12-19T14:37:20.288Z,10
2018-12-19T14:38:29.825Z,10
2018-12-19T14:39:39.880Z,10
2018-12-19T14:40:50.015Z,10
2018-12-19T14:41:59.573Z,10
2018-12-19T14:43:09.657Z,5
2018-12-19T14:44:19.714Z,5
2018-12-19T14:45:29.786Z,5
2018-12-19T14:46:39.597Z,5
2018-12-19T14:47:49.432Z,5
2018-12-19T14:48:59.510Z,5
2018-12-19T14:50:09.565Z,5
2018-12-19T14:51:19.632Z,5
2018-12-19T14:52:29.696Z,5
2018-12-19T14:53:39.515Z,0
2018-12-19T14:54:49.071Z,0
2018-12-19T14:55:59.149Z,0
2018-12-19T14:57:10.774Z,0
2018-12-19T14:58:20.995Z,0
2018-12-19T14:59:30.826Z,0
2018-12-19T15:00:40.927Z,0
2018-12-19T15:01:51.005Z,0
2018-12-19T15:03:01.414Z,0
2018-12-19T15:04:11.518Z,0
2018-12-19T15:05:21.622Z,0
2018-12-19T15:06:31.731Z,0
2018-12-19T15:07:41.810Z,0
2018-12-19T15:08:51.914Z,0
2018-12-19T15:10:02.403Z,0
2018-12-19T15:11:12.475Z,0
2018-12-19T15:12:28.019Z,0
2018-12-19T15:13:38.099Z,0
2018-12-19T15:14:47.933Z,0
2018-12-19T15:15:58.016Z,0
2018-12-19T15:17:13.629Z,0
2018-12-19T15:18:23.907Z,0
2018-12-19T15:19:33.973Z,0
2018-12-19T15:20:44.054Z,0
2018-12-19T15:21:54.194Z,0
2018-12-19T15:23:04.281Z,0
2018-12-19T15:24:14.374Z,0
2018-12-19T15:25:23.925Z,0
2018-12-19T15:26:34.012Z,0
2018-12-19T15:27:44.138Z,0
2018-12-19T15:28:54.239Z,0
2018-12-19T15:30:04.321Z,0
2018-12-19T15:31:14.119Z,0
2018-12-19T15:32:23.924Z,0
2018-12-19T15:33:34.027Z,0
2018-12-19T15:34:44.076Z,0
2018-12-19T15:35:54.196Z,0
2018-12-19T15:37:04.340Z,0
2018-12-19T15:38:14.147Z,0
2018-12-19T15:39:24.232Z,0
2018-12-19T15:40:34.314Z,0
2018-12-19T15:41:44.426Z,0
2018-12-19T15:42:54.567Z,0
2018-12-19T15:44:04.125Z,0
2018-12-19T15:45:14.812Z,0
2018-12-19T15:46:24.885Z,0
2018-12-19T15:47:34.998Z,0
2018-12-19T15:48:44.815Z,0
2018-12-19T15:49:54.978Z,0
2018-12-19T15:51:04.857Z,0
2018-12-19T15:52:14.917Z,0
2018-12-19T15:53:24.983Z,0
2018-12-19T15:54:34.817Z,0
2018-12-19T15:55:44.884Z,0
2018-12-19T15:56:55.016Z,0
2018-12-19T15:58:04.848Z,0
2018-12-19T15:59:14.655Z,0
2018-12-19T16:00:25.093Z,0
2018-12-19T16:01:35.149Z,0
2018-12-19T16:02:45.219Z,0
2018-12-19T16:03:55.296Z,0
2018-12-19T16:05:05.387Z,0
2018-12-19T16:06:15.477Z,0
2018-12-19T16:07:25.547Z,0
2018-12-19T16:08:37.252Z,0
2018-12-19T16:09:47.324Z,0
2018-12-19T16:10:57.146Z,0
2018-12-19T16:12:07.271Z,0
2018-12-19T16:13:17.355Z,0
2018-12-19T16:14:27.479Z,0
2018-12-19T16:15:37.292Z,0
2018-12-19T16:16:47.095Z,0
2018-12-19T16:17:56.948Z,0
2018-12-19T16:19:06.761Z,0
2018-12-19T16:20:16.876Z,0
2018-12-19T16:21:26.679Z,0
2018-12-19T16:22:36.749Z,0
2018-12-19T16:23:46.828Z,0
2018-12-19T16:24:56.664Z,0
2018-12-19T16:26:06.790Z,0
2018-12-19T16:27:16.883Z,0
2018-12-19T16:28:27.038Z,0
2018-12-19T16:29:37.165Z,0
2018-12-19T16:30:47.246Z,0
2018-12-19T16:31:57.302Z,0
2018-12-19T16:33:07.463Z,0
2018-12-19T16:34:17.544Z,0
2018-12-19T16:35:27.702Z,0
2018-12-19T16:36:37.785Z,0
2018-12-19T16:37:47.709Z,0
2018-12-19T16:38:57.794Z,0
2018-12-19T16:40:07.883Z,0
2018-12-19T16:41:17.704Z,0
2018-12-19T16:42:27.802Z,0
2018-12-19T16:43:37.898Z,0
2018-12-19T16:44:47.995Z,0
2018-12-19T16:45:58.138Z,0
2018-12-19T16:47:08.257Z,0
2018-12-19T16:48:18.136Z,0
2018-12-19T16:49:28.344Z,0
2018-12-19T16:50:38.415Z,0
2018-12-19T16:51:48.501Z,0
2018-12-19T16:52:58.335Z,0
2018-12-19T16:54:08.195Z,0
2018-12-19T16:55:18.297Z,0
2018-12-19T16:56:28.420Z,0
2018-12-19T16:57:38.325Z,0
2018-12-19T16:58:48.410Z,0
2018-12-19T16:59:58.495Z,0
2018-12-19T17:01:08.298Z,0
2018-12-19T17:02:18.384Z,0
2018-12-19T17:03:28.492Z,0
2018-12-19T17:04:38.622Z,0
2018-12-19T17:05:48.461Z,0
2018-12-19T17:06:59.804Z,0
2018-12-19T17:08:09.734Z,0
2018-12-19T17:09:19.791Z,0
2018-12-19T17:10:29.882Z,0
2018-12-19T17:11:40.032Z,0
2018-12-19T17:12:57.488Z,0
2018-12-19T17:14:07.588Z,0
2018-12-19T17:15:17.675Z,0
2018-12-19T17:16:27.501Z,0
2018-12-19T17:17:37.651Z,0
2018-12-19T17:18:48.019Z,0
2018-12-19T17:19:58.115Z,0
2018-12-19T17:21:07.963Z,0
2018-12-19T17:22:18.099Z,0
2018-12-19T17:23:27.988Z,0
2018-12-19T17:24:37.540Z,0
2018-12-19T17:25:47.786Z,0
2018-12-19T17:26:57.918Z,0
2018-12-19T17:28:07.742Z,0
2018-12-19T17:29:17.551Z,0
2018-12-19T17:30:27.679Z,0